Terminal Aerodrome Forecast
Issued by NWS

Home | Current Version | Previous Version | Text Only | Print | Product List | Glossary On
Versions: 1 2 3 4 5 6 7 8 9 10 11 12 13 14
000
FTUS45 KABQ 281722
TAFROW
TAF
KROW 281722Z 2818/2918 07006KT P6SM FEW250
     FM282100 13007KT P6SM BKN250
     FM290900 34004KT P6SM BKN200
     FM291600 11007KT P6SM BKN200=

USA.gov is the U.S. government's official web portal to all federal, state and local government web resources and services.